Time;durP1;ratioP1;P1;durP2;ratioP2;P2;SDS_P1;SDS_P2;PMS_P1;PMS_P2;Temp;Humidity;BMP_temperature;BMP_pressure;BME280_temperature;BME280_humidity;BME280_pressure;Samples;Min_cycle;Max_cycle;Signal;HPM_P1;HPM_P2
2023/06/27 00:01:39;;;;;;;16.53;6.50;;;;;;;23.06;62.82;100500.41;5081483;28;20030;-71
2023/06/27 00:04:09;;;;;;;13.85;6.25;;;;;;;23.07;62.96;100490.56;5099807;28;20464;-71
2023/06/27 00:06:40;;;;;;;12.63;6.10;;;;;;;23.07;62.70;100490.56;5099873;28;20031;-71
2023/06/27 00:09:09;;;;;;;14.80;6.10;;;;;;;23.05;62.54;100493.31;5102862;28;20453;-71
2023/06/27 00:11:35;;;;;;;14.43;6.10;;;;;;;23.04;62.48;100490.72;5086495;28;20028;-71
2023/06/27 00:14:00;;;;;;;12.95;6.25;;;;;;;23.03;62.70;100483.59;5099459;28;20039;-71
2023/06/27 00:16:32;;;;;;;15.67;6.33;;;;;;;23.03;62.41;100484.47;5099391;28;20373;-71
2023/06/27 00:19:02;;;;;;;14.07;6.53;;;;;;;23.03;62.44;100484.47;5081264;28;20039;-71
2023/06/27 00:21:28;;;;;;;12.13;5.97;;;;;;;23.04;62.27;100490.72;5099089;28;20028;-71
2023/06/27 00:23:56;;;;;;;14.13;6.13;;;;;;;23.05;62.43;100487.09;5080887;28;20043;-71
2023/06/27 00:26:21;;;;;;;17.00;6.47;;;;;;;23.04;62.21;100485.34;5081303;28;20039;-71
2023/06/27 00:28:46;;;;;;;13.52;6.50;;;;;;;23.04;61.94;100474.63;5099231;28;20028;-71
2023/06/27 00:31:12;;;;;;;11.93;6.00;;;;;;;23.03;61.93;100479.09;5099081;28;20027;-71
2023/06/27 00:33:37;;;;;;;14.93;6.70;;;;;;;23.05;61.86;100470.97;5099075;28;20109;-71
2023/06/27 00:36:05;;;;;;;13.83;6.23;;;;;;;23.06;61.73;100473.56;5099442;28;20089;-71
2023/06/27 00:38:31;;;;;;;13.05;7.18;;;;;;;23.06;61.55;100478.09;5098767;28;20024;-71
2023/06/27 00:40:57;;;;;;;14.65;6.65;;;;;;;23.07;61.50;100475.28;5099218;28;20480;-71
2023/06/27 00:43:23;;;;;;;13.35;6.05;;;;;;;23.07;61.35;100477.13;5098990;28;20042;-71
2023/06/27 00:45:49;;;;;;;13.70;6.73;;;;;;;23.05;61.32;100479.03;5098981;28;20081;-71
2023/06/27 00:48:15;;;;;;;13.25;6.43;;;;;;;23.02;61.57;100477.38;5098666;28;20047;-71
2023/06/27 00:50:43;;;;;;;14.33;7.10;;;;;;;23.00;61.30;100473.91;5099122;28;20042;-71
2023/06/27 00:53:10;;;;;;;13.55;7.13;;;;;;;22.99;61.46;100473.97;5102036;28;20019;-71
2023/06/27 00:55:37;;;;;;;14.55;6.57;;;;;;;22.99;61.34;100465.91;5082515;28;20579;-71
2023/06/27 00:58:03;;;;;;;12.50;6.65;;;;;;;23.01;61.33;100467.56;5098706;28;20020;-71
2023/06/27 01:00:30;;;;;;;13.13;6.40;;;;;;;23.04;61.38;100475.47;5098768;28;20450;-71
2023/06/27 01:02:55;;;;;;;14.23;7.05;;;;;;;23.07;60.98;100474.44;5080470;28;20035;-71
2023/06/27 01:05:21;;;;;;;12.40;6.83;;;;;;;23.08;60.83;100482.41;5098649;28;20040;-71
2023/06/27 01:08:06;;;;;;;15.63;7.00;;;;;;;23.07;60.84;100474.44;5098176;28;20820;-71
2023/06/27 01:10:41;;;;;;;14.48;7.03;;;;;;;23.01;60.54;100481.00;5112131;28;20027;-71
2023/06/27 01:13:23;;;;;;;17.15;7.43;;;;;;;22.93;60.63;100475.19;5098108;28;20071;-71
2023/06/27 01:15:49;;;;;;;18.93;7.33;;;;;;;22.90;60.93;100486.94;5098226;28;20032;-71
2023/06/27 01:18:15;;;;;;;12.88;6.72;;;;;;;22.89;61.13;100482.53;5080077;28;20023;-71
2023/06/27 01:20:43;;;;;;;14.68;6.88;;;;;;;22.90;61.05;100473.50;5098188;28;20020;-71
2023/06/27 01:23:20;;;;;;;13.98;6.75;;;;;;;22.91;60.82;100467.19;5097977;28;20103;-71
2023/06/27 01:25:45;;;;;;;15.63;6.88;;;;;;;22.93;60.92;100467.97;5098129;28;20028;-71
2023/06/27 01:28:14;;;;;;;15.83;7.40;;;;;;;22.91;61.05;100469.03;5098383;28;20028;-72
2023/06/27 01:30:40;;;;;;;16.50;7.50;;;;;;;22.90;60.98;100475.31;5097791;28;20047;-71
2023/06/27 01:33:32;;;;;;;16.57;6.97;;;;;;;22.84;61.09;100473.84;5078857;28;20104;-71
2023/06/27 01:36:26;;;;;;;14.60;7.88;;;;;;;22.82;61.30;100462.31;5087465;28;20024;-71
2023/06/27 01:39:01;;;;;;;14.40;7.28;;;;;;;22.76;61.38;100460.81;5097810;28;20020;-71
2023/06/27 01:41:30;;;;;;;13.95;7.72;;;;;;;22.78;61.27;100458.03;5079597;28;20024;-71
2023/06/27 01:43:58;;;;;;;14.02;7.25;;;;;;;22.80;61.32;100456.16;5098148;28;20546;-71
2023/06/27 01:46:24;;;;;;;15.60;7.67;;;;;;;22.80;61.48;100456.16;5097895;28;20039;-71
2023/06/27 01:48:51;;;;;;;13.50;7.20;;;;;;;22.77;61.23;100457.19;5097632;28;20046;-71
2023/06/27 01:51:17;;;;;;;16.92;7.22;;;;;;;22.74;61.31;100456.47;5097670;28;20502;-71
2023/06/27 01:53:42;;;;;;;15.73;7.63;;;;;;;22.74;61.15;100445.72;5103293;28;20019;-71
2023/06/27 01:56:09;;;;;;;13.17;7.33;;;;;;;22.75;61.19;100447.47;5097609;28;20023;-71
2023/06/27 01:58:34;;;;;;;14.43;7.38;;;;;;;22.72;61.19;100444.94;5097471;28;20016;-71
2023/06/27 02:01:00;;;;;;;13.52;7.20;;;;;;;22.69;60.84;100450.47;5097427;28;20032;-71
2023/06/27 02:03:25;;;;;;;14.43;7.57;;;;;;;22.67;61.29;100447.00;5079434;28;20503;-71
2023/06/27 02:05:51;;;;;;;16.00;6.43;;;;;;;22.69;60.98;100442.41;5097388;28;20103;-71
2023/06/27 02:08:16;;;;;;;15.07;7.07;;;;;;;22.72;61.45;100445.81;5098220;28;20395;-71
2023/06/27 02:10:42;;;;;;;13.02;6.60;;;;;;;22.72;61.24;100439.56;5109019;28;20055;-71
2023/06/27 02:13:07;;;;;;;16.77;6.97;;;;;;;22.74;60.93;100434.97;5097152;28;20077;-71
2023/06/27 02:15:32;;;;;;;12.43;6.97;;;;;;;22.68;61.08;100440.69;5078859;28;20404;-71
2023/06/27 02:17:58;;;;;;;16.33;7.10;;;;;;;22.61;60.94;100435.63;5097200;28;20527;-71
2023/06/27 02:20:24;;;;;;;13.23;7.05;;;;;;;22.61;61.16;100434.75;5097147;28;20028;-71
2023/06/27 02:22:49;;;;;;;15.33;6.67;;;;;;;22.62;61.17;100442.75;5097132;28;20028;-71
2023/06/27 02:25:15;;;;;;;13.17;6.43;;;;;;;22.66;61.01;100446.13;5096843;28;20031;-71
2023/06/27 02:27:40;;;;;;;12.13;6.80;;;;;;;22.70;61.12;100436.97;5097288;28;20286;-71
2023/06/27 02:30:06;;;;;;;13.73;6.70;;;;;;;22.72;60.87;100435.09;5096894;28;20045;-71
2023/06/27 02:32:32;;;;;;;13.68;7.15;;;;;;;22.72;60.95;100440.44;5097331;28;20016;-71
2023/06/27 02:34:57;;;;;;;12.87;6.90;;;;;;;22.71;61.03;100432.47;5097121;28;20065;-71
2023/06/27 02:37:22;;;;;;;13.90;6.23;;;;;;;22.72;60.84;100436.88;5096756;28;20055;-71
2023/06/27 02:39:50;;;;;;;13.07;6.30;;;;;;;22.72;61.00;100431.50;5096911;28;20019;-71
2023/06/27 02:42:15;;;;;;;11.57;6.53;;;;;;;22.70;61.05;100428.03;5097163;28;20030;-71
2023/06/27 02:44:41;;;;;;;12.70;6.38;;;;;;;22.70;61.00;100436.97;5096605;28;20027;-71
2023/06/27 02:47:06;;;;;;;13.63;6.67;;;;;;;22.71;60.87;100433.34;5096537;28;20387;-71
2023/06/27 02:49:32;;;;;;;13.20;6.70;;;;;;;22.72;61.14;100439.56;5096848;28;20099;-71
2023/06/27 02:51:57;;;;;;;11.50;6.03;;;;;;;22.72;61.03;100434.19;5096649;28;20519;-71
2023/06/27 02:54:22;;;;;;;13.47;6.37;;;;;;;22.72;60.95;100426.16;5096956;28;20020;-71
2023/06/27 02:56:48;;;;;;;14.80;6.90;;;;;;;22.73;60.97;100426.06;5096822;28;20254;-71
2023/06/27 02:59:13;;;;;;;11.80;6.50;;;;;;;22.73;60.94;100423.41;5096868;28;20027;-71
2023/06/27 03:01:38;;;;;;;11.33;5.70;;;;;;;22.71;60.92;100419.94;5078594;28;20083;-71
2023/06/27 03:04:04;;;;;;;12.57;6.20;;;;;;;22.69;61.08;100429.00;5078749;28;20480;-71
2023/06/27 03:06:29;;;;;;;13.60;5.97;;;;;;;22.70;60.93;100425.34;5096555;28;20062;-71
2023/06/27 03:08:55;;;;;;;13.70;6.00;;;;;;;22.68;60.88;100424.56;5102858;28;20020;-71
2023/06/27 03:11:20;;;;;;;14.67;6.23;;;;;;;22.67;60.78;100423.72;5105296;28;20487;-71
2023/06/27 03:13:45;;;;;;;13.03;6.00;;;;;;;22.67;60.89;100422.84;5096575;28;20032;-71
2023/06/27 03:16:11;;;;;;;15.00;5.80;;;;;;;22.69;60.83;100431.69;5096274;28;20042;-71
2023/06/27 03:18:36;;;;;;;15.43;5.70;;;;;;;22.66;61.03;100427.31;5078359;28;20050;-71
2023/06/27 03:21:02;;;;;;;12.43;5.43;;;;;;;22.63;60.86;100428.38;5096593;28;20111;-71
2023/06/27 03:23:27;;;;;;;13.57;5.60;;;;;;;22.63;60.81;100428.38;5096107;28;20024;-71
2023/06/27 03:25:53;;;;;;;9.32;5.32;;;;;;;22.63;60.92;100428.38;5096440;28;20024;-71
2023/06/27 03:28:18;;;;;;;11.17;5.57;;;;;;;22.62;60.73;100432.00;5096494;28;20028;-71
2023/06/27 03:30:44;;;;;;;12.53;5.60;;;;;;;22.60;60.93;100423.16;5096328;28;20026;-71
2023/06/27 03:33:10;;;;;;;14.23;5.97;;;;;;;22.60;60.73;100427.66;5096345;28;20024;-71
2023/06/27 03:35:35;;;;;;;11.18;5.40;;;;;;;22.58;60.82;100429.56;5096590;28;20030;-71
2023/06/27 03:38:01;;;;;;;12.37;5.60;;;;;;;22.57;60.86;100428.69;5096461;28;20051;-71
2023/06/27 03:40:26;;;;;;;13.40;6.00;;;;;;;22.54;60.95;100423.47;5096244;28;20028;-71
2023/06/27 03:42:51;;;;;;;13.53;6.13;;;;;;;22.49;61.30;100425.53;5096537;28;20028;-71
2023/06/27 03:45:17;;;;;;;15.97;6.23;;;;;;;22.42;61.62;100432.13;5095926;28;20095;-71
2023/06/27 03:47:42;;;;;;;14.43;6.80;;;;;;;22.42;61.62;100434.81;5077965;28;20044;-71
2023/06/27 03:50:08;;;;;;;14.75;5.90;;;;;;;22.40;61.65;100431.34;5096294;28;20071;-72
2023/06/27 03:52:33;;;;;;;10.67;5.70;;;;;;;22.39;61.50;100425.09;5096157;28;20032;-71
2023/06/27 03:54:59;;;;;;;11.53;6.70;;;;;;;22.41;61.27;100431.25;5102385;28;20453;-71
2023/06/27 03:57:24;;;;;;;13.37;5.47;;;;;;;22.39;61.68;100437.66;5099887;28;20503;-71
2023/06/27 03:59:49;;;;;;;12.67;5.93;;;;;;;22.36;61.59;100431.50;5099683;28;20259;-71
2023/06/27 04:02:15;;;;;;;14.13;5.67;;;;;;;22.36;61.52;100436.88;5099939;28;20111;-71
2023/06/27 04:04:40;;;;;;;12.13;5.37;;;;;;;22.34;61.60;100433.41;5099822;28;20516;-71
2023/06/27 04:07:06;;;;;;;10.63;5.23;;;;;;;22.32;61.70;100432.63;5099675;28;20020;-71
2023/06/27 04:09:31;;;;;;;11.73;5.30;;;;;;;22.30;61.78;100428.25;5105510;28;20069;-71
2023/06/27 04:11:59;;;;;;;13.87;5.07;;;;;;;22.28;61.78;100436.38;5107190;28;20034;-71
2023/06/27 04:14:24;;;;;;;11.25;4.72;;;;;;;22.31;61.77;100435.34;5099573;28;20069;-71
2023/06/27 04:16:49;;;;;;;12.17;5.07;;;;;;;22.29;61.99;100438.09;5099486;28;20028;-71
2023/06/27 04:19:15;;;;;;;10.67;5.07;;;;;;;22.27;61.82;100434.63;5080844;28;20028;-71
2023/06/27 04:21:40;;;;;;;12.20;5.00;;;;;;;22.23;61.85;100433.94;5099437;28;20031;-71
2023/06/27 04:24:06;;;;;;;11.70;5.23;;;;;;;22.22;61.76;100440.25;5099458;28;20062;-71
2023/06/27 04:26:31;;;;;;;12.63;4.90;;;;;;;22.22;61.76;100442.06;5099642;28;20293;-71
2023/06/27 04:28:57;;;;;;;13.03;4.87;;;;;;;22.18;61.70;100443.16;5099197;28;20075;-71
2023/06/27 04:31:22;;;;;;;13.10;5.37;;;;;;;22.18;61.79;100437.78;5099196;28;20027;-71
2023/06/27 04:33:48;;;;;;;12.80;5.38;;;;;;;22.16;61.81;100435.16;5099463;28;20016;-71
2023/06/27 04:36:15;;;;;;;12.63;5.10;;;;;;;22.16;61.66;100435.16;5099405;28;20024;-71
2023/06/27 04:38:42;;;;;;;9.00;4.50;;;;;;;22.15;61.77;100444.16;5080942;28;20017;-71
2023/06/27 04:41:09;;;;;;;13.85;4.63;;;;;;;22.16;61.66;100443.22;5099253;28;20039;-71
2023/06/27 04:43:35;;;;;;;10.30;4.60;;;;;;;22.17;61.69;100441.41;5098862;28;20027;-71
2023/06/27 04:46:01;;;;;;;12.50;4.60;;;;;;;22.21;61.49;100443.00;5098913;28;20110;-71
2023/06/27 04:48:27;;;;;;;12.80;4.75;;;;;;;22.23;61.38;100443.78;5080556;28;20055;-71
2023/06/27 04:50:53;;;;;;;11.68;5.05;;;;;;;22.20;61.67;100442.16;5080744;28;20028;-71
2023/06/27 04:53:22;;;;;;;10.70;4.65;;;;;;;22.20;61.49;100446.63;5103645;28;20016;-71
2023/06/27 04:55:48;;;;;;;10.57;3.97;;;;;;;22.22;61.28;100447.41;5099136;28;20103;-71
2023/06/27 04:58:14;;;;;;;13.48;4.57;;;;;;;22.22;61.56;100450.97;5098688;28;20547;-71
2023/06/27 05:00:39;;;;;;;12.23;4.50;;;;;;;22.26;61.56;100449.00;5080709;28;20399;-71
2023/06/27 05:03:05;;;;;;;14.20;4.87;;;;;;;22.31;61.27;100454.13;5098817;28;20024;-71
2023/06/27 05:05:34;;;;;;;10.87;4.10;;;;;;;22.39;61.09;100456.44;5080594;28;20548;-71
2023/06/27 05:08:06;;;;;;;13.83;4.20;;;;;;;22.47;60.96;100459.63;5098251;28;20339;-71
2023/06/27 05:10:31;;;;;;;13.02;4.65;;;;;;;22.48;60.79;100456.88;5092669;28;20035;-71
2023/06/27 05:12:57;;;;;;;12.03;4.43;;;;;;;22.53;60.88;100461.97;5098656;28;20543;-71
2023/06/27 05:15:23;;;;;;;13.30;4.10;;;;;;;22.51;60.34;100456.72;5084472;28;20035;-71
2023/06/27 05:17:52;;;;;;;10.63;3.90;;;;;;;22.50;60.06;100456.78;5078145;28;20048;-71
2023/06/27 05:20:18;;;;;;;13.20;4.25;;;;;;;22.50;60.09;100452.28;5060187;28;20033;-71
2023/06/27 05:22:43;;;;;;;15.65;4.57;;;;;;;22.50;60.20;100454.09;5077934;28;20084;-72
2023/06/27 05:25:09;;;;;;;12.10;3.70;;;;;;;22.53;60.13;100458.44;5059857;28;20024;-71
2023/06/27 05:27:34;;;;;;;11.02;4.22;;;;;;;22.60;59.81;100460.75;5078111;28;20074;-71
2023/06/27 05:30:00;;;;;;;11.80;3.60;;;;;;;22.66;59.69;100454.16;5059905;28;20040;-71
2023/06/27 05:32:25;;;;;;;12.83;4.10;;;;;;;22.67;59.69;100457.75;5077884;28;20498;-71
2023/06/27 05:34:50;;;;;;;10.17;3.80;;;;;;;22.71;59.63;100453.94;5077818;28;20495;-71
2023/06/27 05:37:16;;;;;;;11.67;3.93;;;;;;;22.74;59.26;100451.97;5059586;28;20028;-71
2023/06/27 05:39:41;;;;;;;10.05;3.67;;;;;;;22.75;59.09;100455.50;5077943;28;20114;-71
2023/06/27 05:42:07;;;;;;;11.40;3.50;;;;;;;22.80;58.99;100456.16;5077830;28;20085;-71
2023/06/27 05:44:33;;;;;;;11.13;3.47;;;;;;;22.87;58.84;100451.31;5059710;28;20369;-71
2023/06/27 05:46:58;;;;;;;11.50;3.60;;;;;;;22.86;58.86;100449.56;5077178;28;20069;-71
2023/06/27 05:49:24;;;;;;;10.57;3.40;;;;;;;22.85;58.82;100448.72;5077377;28;20397;-71
2023/06/27 05:51:49;;;;;;;12.27;3.50;;;;;;;22.91;58.74;100459.13;5077454;28;20028;-71
2023/06/27 05:54:14;;;;;;;8.97;3.50;;;;;;;22.92;58.51;100443.91;5083041;28;20056;-71
2023/06/27 05:56:40;;;;;;;9.88;3.35;;;;;;;22.93;58.25;100451.88;5077612;28;20024;-71
2023/06/27 05:59:05;;;;;;;7.30;3.03;;;;;;;22.98;58.25;100448.94;5077365;28;20111;-71
2023/06/27 06:01:31;;;;;;;8.67;3.33;;;;;;;22.99;58.14;100444.44;5077177;28;20036;-71
2023/06/27 06:03:56;;;;;;;7.37;3.23;;;;;;;23.00;58.00;100446.16;5070628;28;20048;-70
2023/06/27 06:06:21;;;;;;;8.50;3.00;;;;;;;23.07;58.07;100448.44;5077230;28;20036;-70
2023/06/27 06:08:47;;;;;;;9.17;3.40;;;;;;;23.16;57.66;100448.91;5082177;28;20020;-72
2023/06/27 06:11:12;;;;;;;10.83;3.00;;;;;;;23.27;57.54;100454.59;5079102;28;20082;-71
2023/06/27 06:13:38;;;;;;;11.43;3.33;;;;;;;23.34;57.29;100447.06;5077222;28;20024;-71
2023/06/27 06:16:03;;;;;;;10.85;3.35;;;;;;;23.41;57.44;100451.16;5076933;28;20362;-71
2023/06/27 06:18:29;;;;;;;10.30;3.30;;;;;;;23.55;57.01;100453.06;5055062;28;20067;-71
2023/06/27 06:20:55;;;;;;;9.93;3.03;;;;;;;23.65;56.69;100448.94;5076875;28;20025;-70
2023/06/27 06:23:20;;;;;;;10.23;2.92;;;;;;;23.70;56.71;100445.97;5076675;28;20027;-71
2023/06/27 06:25:45;;;;;;;11.00;3.30;;;;;;;23.75;56.53;100448.41;5063902;28;20060;-70
2023/06/27 06:28:11;;;;;;;11.77;2.73;;;;;;;23.78;56.33;100449.09;5076800;28;20104;-71
2023/06/27 06:30:36;;;;;;;8.55;2.83;;;;;;;23.86;56.30;100445.94;5077072;28;20479;-70
2023/06/27 06:33:01;;;;;;;8.07;3.00;;;;;;;23.87;55.70;100439.66;5076580;28;20397;-70
2023/06/27 06:35:27;;;;;;;8.83;2.87;;;;;;;23.92;55.55;100439.38;5076727;28;20063;-70
2023/06/27 06:37:53;;;;;;;12.13;3.20;;;;;;;23.98;55.34;100436.31;5074770;28;20428;-69
2023/06/27 06:40:18;;;;;;;15.52;3.30;;;;;;;24.06;55.22;100439.47;5072199;28;20056;-70
2023/06/27 06:42:44;;;;;;;9.90;3.00;;;;;;;24.12;55.39;100437.38;5077896;28;20032;-70
2023/06/27 06:45:10;;;;;;;10.85;3.45;;;;;;;24.17;55.10;100438.84;5076066;28;20126;-70
2023/06/27 06:47:35;;;;;;;9.10;2.77;;;;;;;24.23;54.67;100437.59;5076160;28;20080;-70
2023/06/27 06:50:01;;;;;;;8.75;2.83;;;;;;;24.28;54.19;100430.16;5076115;28;20048;-70
2023/06/27 06:52:26;;;;;;;9.23;2.67;;;;;;;24.39;54.52;100431.31;5058497;28;20028;-70
2023/06/27 06:54:52;;;;;;;8.70;2.80;;;;;;;24.54;54.35;100430.41;5082107;28;20035;-70
2023/06/27 06:57:17;;;;;;;7.47;2.90;;;;;;;24.66;54.09;100429.66;5076343;28;20028;-70
2023/06/27 06:59:42;;;;;;;8.27;2.80;;;;;;;24.71;53.14;100425.81;5076492;28;20052;-70
2023/06/27 07:02:08;;;;;;;10.30;2.83;;;;;;;24.79;53.32;100420.88;5076680;28;20538;-70
2023/06/27 07:04:33;;;;;;;14.30;3.07;;;;;;;24.83;53.80;100430.50;5058341;28;20118;-70
2023/06/27 07:06:59;;;;;;;10.07;3.03;;;;;;;24.87;52.85;100431.19;5058160;28;20052;-70
2023/06/27 07:09:24;;;;;;;10.80;2.63;;;;;;;24.90;52.97;100433.69;5082491;28;20012;-70
2023/06/27 07:11:51;;;;;;;8.87;3.17;;;;;;;24.99;53.47;100433.09;5065894;28;20032;-70
2023/06/27 07:14:19;;;;;;;12.82;3.30;;;;;;;25.12;53.17;100429.66;5076637;28;20024;-70
2023/06/27 07:16:44;;;;;;;12.18;2.88;;;;;;;25.18;52.36;100432.81;5076328;28;20035;-70
2023/06/27 07:19:10;;;;;;;9.10;3.30;;;;;;;25.23;52.38;100428.00;5076046;28;20024;-70
2023/06/27 07:21:37;;;;;;;8.98;3.00;;;;;;;25.28;52.78;100429.53;5076338;28;20056;-70
2023/06/27 07:24:04;;;;;;;11.87;3.57;;;;;;;25.40;52.54;100427.91;5076390;28;20025;-70
2023/06/27 07:26:30;;;;;;;6.88;3.00;;;;;;;25.51;52.47;100428.97;5076402;28;20024;-70
2023/06/27 07:28:55;;;;;;;9.77;3.50;;;;;;;25.56;52.25;100433.19;5076243;28;20507;-70
2023/06/27 07:31:21;;;;;;;8.85;3.13;;;;;;;25.61;52.11;100434.63;5078787;28;20032;-70
2023/06/27 07:33:47;;;;;;;8.47;3.07;;;;;;;25.70;52.00;100430.47;5080157;28;20052;-70
2023/06/27 07:36:12;;;;;;;9.88;3.03;;;;;;;25.82;51.81;100438.72;5079890;28;20078;-70
2023/06/27 07:38:38;;;;;;;6.83;2.80;;;;;;;25.91;51.66;100432.72;5080059;28;20016;-70
2023/06/27 07:41:03;;;;;;;9.30;3.00;;;;;;;26.01;51.55;100428.44;5062064;28;20031;-70
2023/06/27 07:43:29;;;;;;;9.90;3.03;;;;;;;26.06;51.38;100436.25;5079896;28;20048;-70
2023/06/27 07:45:54;;;;;;;8.40;2.90;;;;;;;26.13;51.41;100437.56;5061975;28;20075;-70
2023/06/27 07:48:19;;;;;;;9.03;2.90;;;;;;;26.18;50.62;100426.50;5079666;28;20091;-70
2023/06/27 07:50:45;;;;;;;11.30;3.20;;;;;;;26.23;50.84;100436.00;5079806;28;20027;-70
2023/06/27 07:53:10;;;;;;;9.40;2.53;;;;;;;26.31;50.58;100435.47;5065473;28;20042;-70
2023/06/27 07:55:36;;;;;;;9.50;2.70;;;;;;;26.42;50.30;100434.75;5081648;28;20058;-70
2023/06/27 07:58:01;;;;;;;10.73;2.80;;;;;;;26.53;49.71;100433.16;5079719;28;20017;-70
2023/06/27 08:00:26;;;;;;;11.73;2.90;;;;;;;26.60;49.58;100429.91;5079457;28;20024;-70
2023/06/27 08:02:52;;;;;;;9.43;2.80;;;;;;;26.68;50.15;100423.13;5061416;28;20035;-70
2023/06/27 08:05:18;;;;;;;9.23;2.92;;;;;;;26.73;49.42;100421.81;5079507;28;20056;-70
2023/06/27 08:07:44;;;;;;;9.70;2.60;;;;;;;26.79;49.30;100428.63;5079225;28;20058;-71
2023/06/27 08:10:11;;;;;;;8.70;2.67;;;;;;;26.87;49.03;100420.88;5089994;28;20499;-70
2023/06/27 08:12:37;;;;;;;11.23;2.97;;;;;;;27.02;49.03;100420.78;5097243;28;20037;-70
2023/06/27 08:15:03;;;;;;;9.50;2.93;;;;;;;27.16;49.13;100419.78;5079242;28;20020;-70
2023/06/27 08:17:28;;;;;;;9.43;2.80;;;;;;;27.29;48.91;100415.25;5079164;28;20070;-70
2023/06/27 08:19:53;;;;;;;7.07;2.90;;;;;;;27.43;48.62;100421.47;5079414;28;20024;-70
2023/06/27 08:22:19;;;;;;;11.60;2.90;;;;;;;27.52;48.49;100418.16;5078869;28;20059;-70
2023/06/27 08:24:44;;;;;;;12.70;2.50;;;;;;;27.53;48.42;100413.59;5079387;28;20032;-70
2023/06/27 08:27:10;;;;;;;10.93;3.00;;;;;;;27.54;47.78;100412.59;5079250;28;20075;-70
2023/06/27 08:29:35;;;;;;;8.75;3.10;;;;;;;27.49;47.90;100415.59;5079185;28;20020;-70
2023/06/27 08:32:01;;;;;;;20.17;3.17;;;;;;;27.38;48.34;100411.00;5078864;28;20047;-70
2023/06/27 08:34:28;;;;;;;8.55;2.90;;;;;;;27.45;48.31;100412.28;5079227;28;20484;-70
2023/06/27 08:36:54;;;;;;;11.13;2.97;;;;;;;27.63;48.11;100417.34;5079025;28;20431;-70
2023/06/27 08:39:19;;;;;;;8.30;2.75;;;;;;;27.74;47.41;100413.84;5078814;28;20008;-70
2023/06/27 08:41:46;;;;;;;8.93;2.60;;;;;;;27.85;47.17;100407.63;5060595;28;20024;-71
2023/06/27 08:44:11;;;;;;;6.45;2.58;;;;;;;27.94;46.97;100415.06;5061318;28;20025;-70
2023/06/27 08:46:38;;;;;;;9.07;2.73;;;;;;;28.04;46.76;100410.66;5078547;28;20051;-70
2023/06/27 08:49:06;;;;;;;9.43;2.55;;;;;;;28.20;46.60;100404.13;5038447;28;20064;-70
2023/06/27 08:51:33;;;;;;;9.38;3.00;;;;;;;28.36;46.22;100404.69;5038541;28;20434;-70
2023/06/27 08:54:08;;;;;;;9.70;2.53;;;;;;;28.49;45.92;100401.00;5038438;28;20485;-70
2023/06/27 08:56:34;;;;;;;10.50;2.78;;;;;;;28.61;45.70;100391.94;5038605;28;20033;-70
2023/06/27 08:59:05;;;;;;;8.90;2.60;;;;;;;28.72;45.60;100399.22;5036771;28;20063;-70
2023/06/27 09:01:34;;;;;;;8.15;2.63;;;;;;;28.88;45.48;100388.06;5037219;28;20072;-70
2023/06/27 09:04:01;;;;;;;8.43;2.83;;;;;;;28.89;44.92;100392.50;5038695;28;20402;-70
2023/06/27 09:06:26;;;;;;;10.55;2.88;;;;;;;28.97;45.10;100393.72;5038129;28;20160;-70
2023/06/27 09:08:52;;;;;;;8.90;2.80;;;;;;;29.04;44.49;100394.94;5043959;28;20025;-70
2023/06/27 09:11:18;;;;;;;9.80;2.60;;;;;;;29.15;44.38;100396.78;5039371;28;20068;-70
2023/06/27 09:13:43;;;;;;;11.63;2.95;;;;;;;29.20;44.35;100400.84;5038433;28;20031;-70
2023/06/27 09:16:09;;;;;;;8.17;3.00;;;;;;;29.31;44.25;100393.72;5036718;28;20108;-70
2023/06/27 09:18:36;;;;;;;9.63;2.80;;;;;;;29.45;44.34;100390.75;5036910;28;20032;-70
2023/06/27 09:21:02;;;;;;;9.43;2.60;;;;;;;29.53;43.75;100387.41;5038241;28;20029;-70
2023/06/27 09:23:29;;;;;;;12.13;3.13;;;;;;;29.54;43.21;100394.56;5037966;28;20036;-70
2023/06/27 09:26:09;;;;;;;8.70;2.92;;;;;;;29.39;43.38;100395.78;5038299;28;20018;-70
2023/06/27 09:28:44;;;;;;;7.72;2.92;;;;;;;29.39;43.38;100390.34;5038243;28;20025;-70
2023/06/27 09:31:10;;;;;;;8.95;3.05;;;;;;;29.48;43.53;100395.91;5038014;28;20104;-70
2023/06/27 09:33:36;;;;;;;9.60;2.80;;;;;;;29.50;42.99;100398.53;5037952;28;20021;-70
2023/06/27 09:36:03;;;;;;;10.97;3.40;;;;;;;29.56;42.59;100402.59;5038136;28;20055;-70
2023/06/27 09:38:34;;;;;;;9.25;2.97;;;;;;;29.62;43.07;100391.22;5037753;28;20052;-70
2023/06/27 09:41:07;;;;;;;8.93;3.10;;;;;;;29.67;42.54;100399.84;5038029;28;20047;-70
2023/06/27 09:43:35;;;;;;;10.68;3.60;;;;;;;29.70;43.02;100394.16;5037661;28;20021;-70
2023/06/27 09:46:01;;;;;;;9.35;3.47;;;;;;;29.79;42.90;100392.53;5037923;28;20024;-70
2023/06/27 09:48:31;;;;;;;11.87;3.17;;;;;;;29.78;43.04;100388.09;5036081;28;20049;-70
2023/06/27 09:51:00;;;;;;;9.13;2.92;;;;;;;29.81;42.59;100384.25;5037754;28;20029;-71
2023/06/27 09:53:28;;;;;;;9.35;3.33;;;;;;;29.88;42.25;100385.47;5036481;28;20025;-70
2023/06/27 09:56:01;;;;;;;8.68;3.17;;;;;;;29.84;41.90;100389.44;5037343;28;20108;-71
2023/06/27 09:58:27;;;;;;;9.35;3.10;;;;;;;29.83;41.75;100388.56;5037630;28;20497;-70
2023/06/27 10:00:53;;;;;;;8.27;3.60;;;;;;;29.89;42.39;100381.75;5032331;28;20071;-70
2023/06/27 10:03:20;;;;;;;10.18;3.90;;;;;;;30.04;42.40;100380.50;5037450;28;20026;-70
2023/06/27 10:05:46;;;;;;;9.60;3.60;;;;;;;30.24;42.21;100380.63;5037362;28;20490;-70
2023/06/27 10:08:12;;;;;;;9.43;3.33;;;;;;;30.25;41.84;100381.50;5037555;28;20029;-70
2023/06/27 10:10:37;;;;;;;9.33;3.23;;;;;;;30.29;41.50;100380.25;5042529;28;20553;-71
2023/06/27 10:13:03;;;;;;;8.03;3.10;;;;;;;30.36;40.90;100371.44;5036017;28;20022;-70
2023/06/27 10:15:29;;;;;;;10.65;3.20;;;;;;;30.50;41.16;100372.94;5037045;28;20036;-70
2023/06/27 10:17:55;;;;;;;8.77;3.00;;;;;;;30.61;40.66;100371.16;5037241;28;20025;-70
2023/06/27 10:20:21;;;;;;;11.20;3.50;;;;;;;30.68;40.32;100371.50;5037045;28;20018;-70
2023/06/27 10:22:47;;;;;;;10.55;3.28;;;;;;;30.51;40.81;100371.13;5035710;28;20063;-70
2023/06/27 10:25:13;;;;;;;8.73;3.13;;;;;;;30.36;40.42;100363.28;5037012;28;20028;-70
2023/06/27 10:27:39;;;;;;;8.45;3.40;;;;;;;30.46;40.69;100373.34;5037021;28;20022;-70
2023/06/27 10:30:12;;;;;;;7.75;3.22;;;;;;;30.61;40.69;100366.63;5036967;28;20167;-70
2023/06/27 10:32:45;;;;;;;7.65;3.40;;;;;;;30.75;39.76;100361.84;5037235;28;20132;-70
2023/06/27 10:35:26;;;;;;;11.10;3.13;;;;;;;30.70;39.71;100354.06;5037014;28;21432;-70
2023/06/27 10:38:11;;;;;;;8.37;3.20;;;;;;;30.66;39.93;100363.50;5035564;28;20029;-70
2023/06/27 10:41:09;;;;;;;9.23;2.88;;;;;;;30.76;40.42;100353.53;5036972;28;20037;-71
2023/06/27 10:43:48;;;;;;;7.53;2.88;;;;;;;31.01;39.60;100354.06;5035459;28;20566;-70
2023/06/27 10:46:22;;;;;;;8.00;3.17;;;;;;;31.00;39.61;100356.94;5035507;28;20474;-71
2023/06/27 10:49:05;;;;;;;9.13;3.05;;;;;;;30.85;39.57;100356.41;5057353;28;20036;-70
2023/06/27 10:51:41;;;;;;;8.77;2.90;;;;;;;30.82;39.84;100352.13;5058342;28;20024;-71
2023/06/27 10:54:07;;;;;;;8.90;3.10;;;;;;;30.89;39.02;100347.84;5076940;28;20054;-71
2023/06/27 10:56:34;;;;;;;7.47;3.33;;;;;;;30.86;38.52;100345.41;5076641;28;20084;-70
2023/06/27 10:59:02;;;;;;;8.05;2.90;;;;;;;30.95;38.69;100341.03;5068054;28;20016;-70
2023/06/27 11:01:27;;;;;;;9.90;3.30;;;;;;;31.05;38.76;100341.06;5058466;28;20113;-71
2023/06/27 11:03:57;;;;;;;7.83;3.10;;;;;;;31.14;38.55;100355.69;5077252;28;20090;-70
2023/06/27 11:06:39;;;;;;;8.02;3.08;;;;;;;31.29;37.92;100338.00;5080518;28;20028;-70
2023/06/27 11:09:06;;;;;;;10.38;3.33;;;;;;;31.48;37.48;100342.63;5087316;28;20032;-71
2023/06/27 11:11:33;;;;;;;10.95;3.40;;;;;;;31.55;37.30;100337.47;5089162;28;20461;-71
2023/06/27 11:14:06;;;;;;;9.88;3.38;;;;;;;31.45;37.74;100339.31;5080687;28;20036;-71
2023/06/27 11:16:35;;;;;;;7.13;3.13;;;;;;;31.45;37.84;100332.00;5080715;28;20058;-70
2023/06/27 11:19:04;;;;;;;7.75;3.38;;;;;;;31.55;37.62;100325.72;5080484;28;20024;-70